Time;durP1;ratioP1;P1;durP2;ratioP2;P2;SDS_P1;SDS_P2;PMS_P1;PMS_P2;Temp;Humidity;BMP_temperature;BMP_pressure;BME280_temperature;BME280_humidity;BME280_pressure;Samples;Min_cycle;Max_cycle;Signal;HPM_P1;HPM_P2
2022/04/29 00:02:17;;;;;;;0.70;0.70;;;5.80;87.10;;;;;;5054992;28;20216;-86
2022/04/29 00:04:43;;;;;;;0.60;0.60;;;5.90;86.50;;;;;;5053859;28;20215;-86
2022/04/29 00:07:10;;;;;;;0.50;0.50;;;5.80;86.80;;;;;;5053759;28;20264;-84
2022/04/29 00:09:36;;;;;;;0.70;0.70;;;5.80;87.00;;;;;;5055047;28;20684;-87
2022/04/29 00:12:05;;;;;;;0.80;0.80;;;5.70;87.20;;;;;;5053794;28;20197;-86
2022/04/29 00:14:30;;;;;;;0.70;0.70;;;5.60;87.20;;;;;;5053480;28;20209;-85
2022/04/29 00:16:56;;;;;;;0.70;0.70;;;5.60;87.60;;;;;;5037140;28;20236;-85
2022/04/29 00:19:22;;;;;;;0.70;0.70;;;5.60;87.60;;;;;;5054858;28;20225;-86
2022/04/29 00:21:48;;;;;;;1.05;0.90;;;5.50;88.00;;;;;;5034593;28;20248;-84
2022/04/29 00:24:14;;;;;;;0.70;0.70;;;5.60;88.00;;;;;;5055387;28;20660;-88
2022/04/29 00:26:40;;;;;;;0.70;0.70;;;5.50;88.00;;;;;;5054705;28;20205;-86
2022/04/29 00:29:07;;;;;;;0.63;0.63;;;5.50;88.60;;;;;;5037146;28;20190;-87
2022/04/29 00:31:34;;;;;;;0.63;0.63;;;5.40;89.00;;;;;;5055912;28;20240;-85
2022/04/29 00:34:00;;;;;;;0.70;0.70;;;5.40;89.30;;;;;;5055323;28;20197;-88
2022/04/29 00:36:26;;;;;;;0.70;0.70;;;5.30;89.50;;;;;;5054005;28;20559;-85
2022/04/29 00:38:52;;;;;;;0.70;0.70;;;5.30;89.70;;;;;;5054135;28;20197;-87
2022/04/29 00:41:20;;;;;;;0.70;0.70;;;5.30;89.90;;;;;;5055329;28;20207;-86
2022/04/29 00:43:46;;;;;;;0.70;0.70;;;5.20;90.00;;;;;;5037327;28;20288;-87
2022/04/29 00:46:12;;;;;;;0.70;0.70;;;5.20;90.10;;;;;;5054995;28;20232;-87
2022/04/29 00:48:38;;;;;;;0.80;0.80;;;5.20;90.10;;;;;;5054731;28;20295;-87
2022/04/29 00:51:05;;;;;;;0.70;0.70;;;5.20;90.20;;;;;;5054654;28;20231;-87
2022/04/29 00:53:31;;;;;;;0.65;0.65;;;5.10;90.50;;;;;;5036439;28;20269;-87
2022/04/29 00:55:57;;;;;;;0.70;0.70;;;5.00;90.60;;;;;;5053545;28;20583;-86
2022/04/29 00:58:33;;;;;;;0.70;0.70;;;5.00;90.70;;;;;;5055070;28;20565;-86
2022/04/29 01:01:03;;;;;;;0.63;0.63;;;5.00;90.70;;;;;;5053980;28;20227;-79
2022/04/29 01:03:29;;;;;;;0.60;0.60;;;4.90;90.90;;;;;;5037378;28;20702;-79
2022/04/29 01:05:55;;;;;;;0.70;0.70;;;4.90;90.90;;;;;;5037087;28;20617;-79
2022/04/29 01:08:21;;;;;;;0.70;0.70;;;4.90;91.20;;;;;;5053728;28;20292;-80
2022/04/29 01:10:48;;;;;;;0.73;0.73;;;4.90;91.00;;;;;;5057378;28;20524;-79
2022/04/29 01:13:16;;;;;;;0.60;0.60;;;5.00;90.70;;;;;;5039599;28;20311;-80
2022/04/29 01:15:42;;;;;;;0.80;0.80;;;5.00;91.10;;;;;;5039519;28;20563;-80
2022/04/29 01:18:09;;;;;;;0.70;0.70;;;4.80;91.00;;;;;;5039451;28;20199;-80
2022/04/29 01:20:36;;;;;;;0.70;0.70;;;4.70;90.90;;;;;;5039692;28;20315;-79
2022/04/29 01:23:10;;;;;;;0.63;0.63;;;4.70;91.00;;;;;;5039805;28;20202;-79
2022/04/29 01:25:37;;;;;;;0.70;0.70;;;4.70;91.10;;;;;;5056314;28;20205;-79
2022/04/29 01:28:03;;;;;;;0.70;0.70;;;4.70;91.10;;;;;;5039856;28;20208;-80
2022/04/29 01:30:29;;;;;;;0.70;0.70;;;4.60;91.10;;;;;;5057848;28;20212;-80
2022/04/29 01:32:56;;;;;;;0.60;0.60;;;4.60;91.00;;;;;;5039302;28;20194;-80
2022/04/29 01:35:22;;;;;;;0.60;0.60;;;4.60;91.20;;;;;;5042962;28;20197;-81
2022/04/29 01:37:48;;;;;;;0.80;0.80;;;4.60;91.10;;;;;;5078019;28;20606;-78
2022/04/29 01:40:14;;;;;;;0.50;0.50;;;4.50;91.20;;;;;;5078927;28;20204;-79
2022/04/29 01:42:41;;;;;;;0.70;0.70;;;4.40;91.40;;;;;;5076841;28;20223;-79
2022/04/29 01:45:10;;;;;;;0.60;0.60;;;4.40;91.40;;;;;;5078525;28;20283;-78
2022/04/29 01:47:36;;;;;;;0.70;0.70;;;4.40;91.50;;;;;;5079407;28;20279;-79
2022/04/29 01:50:06;;;;;;;0.80;0.80;;;4.40;91.60;;;;;;5078751;28;20682;-79
2022/04/29 01:52:32;;;;;;;0.68;0.68;;;4.30;91.80;;;;;;5060349;28;20310;-78
2022/04/29 01:54:57;;;;;;;0.60;0.60;;;4.20;91.90;;;;;;5078860;28;20232;-79
2022/04/29 01:57:23;;;;;;;0.70;0.70;;;4.20;91.80;;;;;;5077378;28;20254;-78
2022/04/29 01:59:48;;;;;;;0.70;0.70;;;4.10;91.90;;;;;;5073431;28;20204;-78
2022/04/29 02:02:16;;;;;;;0.60;0.60;;;4.10;92.10;;;;;;5038085;28;20202;-79
2022/04/29 02:04:42;;;;;;;0.68;0.68;;;4.10;92.20;;;;;;5056579;28;20706;-78
2022/04/29 02:07:07;;;;;;;0.70;0.70;;;4.00;92.70;;;;;;5057183;28;20193;-78
2022/04/29 02:09:33;;;;;;;0.70;0.70;;;3.90;92.60;;;;;;5057301;28;20189;-79
2022/04/29 02:12:05;;;;;;;0.50;0.50;;;3.90;92.90;;;;;;5057362;28;20193;-79
2022/04/29 02:14:32;;;;;;;0.70;0.70;;;3.90;92.90;;;;;;5056800;28;20205;-79
2022/04/29 02:16:58;;;;;;;0.70;0.70;;;3.90;92.80;;;;;;5057077;28;20236;-79
2022/04/29 02:19:25;;;;;;;0.90;0.90;;;3.90;93.20;;;;;;5040147;28;20320;-80
2022/04/29 02:21:51;;;;;;;0.60;0.60;;;3.90;93.00;;;;;;5057184;28;20264;-80
2022/04/29 02:24:17;;;;;;;0.70;0.70;;;3.90;93.20;;;;;;5055998;28;20293;-78
2022/04/29 02:26:43;;;;;;;0.77;0.77;;;3.80;93.40;;;;;;5057636;28;20225;-79
2022/04/29 02:29:09;;;;;;;0.70;0.70;;;3.80;93.50;;;;;;5056059;28;20197;-79
2022/04/29 02:31:35;;;;;;;0.70;0.70;;;3.80;93.70;;;;;;5055282;28;20209;-79
2022/04/29 02:34:01;;;;;;;0.70;0.70;;;3.70;94.00;;;;;;5042327;28;20264;-79
2022/04/29 02:36:26;;;;;;;0.60;0.60;;;3.60;94.10;;;;;;5055673;28;20292;-78
2022/04/29 02:38:52;;;;;;;0.70;0.70;;;3.60;94.60;;;;;;5039103;28;20197;-79
2022/04/29 02:41:18;;;;;;;0.60;0.60;;;3.60;94.90;;;;;;5057679;28;20213;-80
2022/04/29 02:43:44;;;;;;;0.63;0.63;;;3.60;95.10;;;;;;5039355;28;20212;-79
2022/04/29 02:46:10;;;;;;;0.80;0.80;;;3.50;95.10;;;;;;5038026;28;20682;-80
2022/04/29 02:48:36;;;;;;;0.70;0.70;;;3.50;95.30;;;;;;5038470;28;20197;-79
2022/04/29 02:51:04;;;;;;;0.70;0.70;;;3.50;95.50;;;;;;5038352;28;20209;-80
2022/04/29 02:53:31;;;;;;;0.70;0.70;;;3.50;95.70;;;;;;5037942;28;20734;-80
2022/04/29 02:55:57;;;;;;;0.80;0.80;;;3.50;95.80;;;;;;5054291;28;20255;-78
2022/04/29 02:58:22;;;;;;;0.80;0.80;;;3.60;95.90;;;;;;5054819;28;20205;-78
2022/04/29 03:00:48;;;;;;;0.80;0.80;;;3.60;95.80;;;;;;5051190;28;20293;-79
2022/04/29 03:03:14;;;;;;;0.70;0.70;;;3.70;95.80;;;;;;5051204;28;20251;-79
2022/04/29 03:05:40;;;;;;;0.60;0.60;;;3.70;95.90;;;;;;5054883;28;20209;-78
2022/04/29 03:08:06;;;;;;;0.50;0.50;;;3.70;96.00;;;;;;5055995;28;20569;-80
2022/04/29 03:10:33;;;;;;;0.63;0.63;;;3.60;96.30;;;;;;5055937;28;20213;-78
2022/04/29 03:12:59;;;;;;;0.70;0.70;;;3.60;96.40;;;;;;5056228;28;20197;-80
2022/04/29 03:15:28;;;;;;;0.70;0.70;;;3.60;96.40;;;;;;5057902;28;20679;-78
2022/04/29 03:20:40;;;;;;;0.70;0.70;;;3.60;96.70;;;;;;5058140;28;20240;-77
2022/04/29 03:23:06;;;;;;;0.77;0.77;;;3.60;96.70;;;;;;5057067;28;20197;-79
2022/04/29 03:25:32;;;;;;;0.77;0.77;;;3.60;96.80;;;;;;5056476;28;20202;-79
2022/04/29 03:27:58;;;;;;;0.70;0.70;;;3.60;97.00;;;;;;5057433;28;20200;-79
2022/04/29 03:30:24;;;;;;;0.70;0.70;;;3.50;97.20;;;;;;5032316;28;20217;-79
2022/04/29 03:32:55;;;;;;;0.70;0.70;;;3.50;97.30;;;;;;5037002;28;20198;-78
2022/04/29 03:35:21;;;;;;;0.70;0.70;;;3.50;97.50;;;;;;5038253;28;20254;-78
2022/04/29 03:37:52;;;;;;;0.70;0.70;;;3.40;97.60;;;;;;5037200;28;20675;-78
2022/04/29 03:40:22;;;;;;;0.80;0.80;;;3.50;97.70;;;;;;5038785;28;20197;-78
2022/04/29 03:42:56;;;;;;;0.70;0.70;;;3.50;97.90;;;;;;5020364;28;20209;-79
2022/04/29 03:45:24;;;;;;;0.80;0.80;;;3.40;98.10;;;;;;5036448;28;20687;-80
2022/04/29 03:47:49;;;;;;;0.70;0.70;;;3.50;98.10;;;;;;5038180;28;20201;-79
2022/04/29 03:50:15;;;;;;;0.70;0.70;;;3.50;98.20;;;;;;5037445;28;20664;-79
2022/04/29 03:52:48;;;;;;;0.70;0.70;;;3.50;98.30;;;;;;5042969;28;20213;-79
2022/04/29 03:55:25;;;;;;;0.70;0.70;;;3.50;98.40;;;;;;5055524;28;20194;-79
2022/04/29 03:57:53;;;;;;;0.80;0.80;;;3.60;98.30;;;;;;5055597;28;20200;-79
2022/04/29 04:00:20;;;;;;;0.80;0.80;;;3.50;98.50;;;;;;5052430;28;20198;-79
2022/04/29 04:02:46;;;;;;;0.80;0.80;;;3.60;98.90;;;;;;5037479;28;20213;-78
2022/04/29 04:05:12;;;;;;;0.70;0.70;;;3.60;99.00;;;;;;5019741;28;20719;-79
2022/04/29 04:07:38;;;;;;;0.80;0.80;;;3.60;99.00;;;;;;5035985;28;20198;-79
2022/04/29 04:10:05;;;;;;;0.70;0.70;;;3.60;99.30;;;;;;5036268;28;20214;-78
2022/04/29 04:12:38;;;;;;;0.70;0.70;;;3.60;99.20;;;;;;5036316;28;20298;-78
2022/04/29 04:15:05;;;;;;;0.70;0.70;;;3.60;99.60;;;;;;5018815;28;20204;-79
2022/04/29 04:17:31;;;;;;;0.73;0.73;;;3.60;99.60;;;;;;5034030;28;20672;-78
2022/04/29 04:19:57;;;;;;;0.80;0.80;;;3.70;99.50;;;;;;5036385;28;20190;-79
2022/04/29 04:22:22;;;;;;;0.70;0.70;;;3.70;99.50;;;;;;5018248;28;20234;-78
2022/04/29 04:24:48;;;;;;;0.60;0.60;;;3.70;99.50;;;;;;5056164;28;20202;-78
2022/04/29 04:27:14;;;;;;;0.68;0.68;;;3.80;99.90;;;;;;5043885;28;20221;-77
2022/04/29 04:29:39;;;;;;;0.80;0.80;;;3.80;99.90;;;;;;5018875;28;20202;-79
2022/04/29 04:32:05;;;;;;;0.60;0.60;;;3.80;99.70;;;;;;5019458;28;20257;-79
2022/04/29 04:37:23;;;;;;;0.60;0.60;;;3.90;99.90;;;;;;5035479;28;20197;-79
2022/04/29 04:39:49;;;;;;;0.70;0.70;;;4.00;99.90;;;;;;5036250;28;20208;-78
2022/04/29 04:42:15;;;;;;;0.70;0.70;;;4.00;99.90;;;;;;5018466;28;20198;-80
2022/04/29 04:44:42;;;;;;;1.42;1.08;;;4.10;99.90;;;;;;5017118;28;20672;-79
2022/04/29 04:47:08;;;;;;;0.70;0.70;;;4.20;99.90;;;;;;5018430;28;20202;-80
2022/04/29 04:49:34;;;;;;;0.70;0.70;;;4.20;99.30;;;;;;5013801;28;20577;-78
2022/04/29 04:52:01;;;;;;;0.70;0.70;;;4.30;99.60;;;;;;5015599;28;20206;-79
2022/04/29 04:54:27;;;;;;;0.80;0.80;;;4.30;99.60;;;;;;5025946;28;20665;-79
2022/04/29 04:56:52;;;;;;;0.60;0.60;;;4.30;99.90;;;;;;5034404;28;20198;-79
2022/04/29 04:59:18;;;;;;;0.70;0.70;;;4.40;99.60;;;;;;5035875;28;20191;-79
2022/04/29 05:01:44;;;;;;;0.60;0.60;;;4.40;99.90;;;;;;5013767;28;20203;-79
2022/04/29 05:04:10;;;;;;;0.70;0.70;;;4.40;99.80;;;;;;5012938;28;20203;-80
2022/04/29 05:06:37;;;;;;;0.70;0.70;;;4.40;99.90;;;;;;5012763;28;20226;-79
2022/04/29 05:09:04;;;;;;;0.80;0.80;;;4.40;99.90;;;;;;5013149;28;20676;-80
2022/04/29 05:11:29;;;;;;;0.70;0.70;;;4.50;99.60;;;;;;5012767;28;20221;-79
2022/04/29 05:13:55;;;;;;;0.70;0.70;;;4.50;99.80;;;;;;5012043;28;20198;-79
2022/04/29 05:16:20;;;;;;;0.60;0.60;;;4.50;99.10;;;;;;5011977;28;20195;-80
2022/04/29 05:18:46;;;;;;;0.80;0.80;;;4.60;99.90;;;;;;5014101;28;20560;-79
2022/04/29 05:21:12;;;;;;;0.70;0.70;;;4.60;99.90;;;;;;5035869;28;20267;-80
2022/04/29 05:23:37;;;;;;;0.70;0.70;;;4.70;99.90;;;;;;5035978;28;20286;-79
2022/04/29 05:26:03;;;;;;;0.70;0.70;;;4.80;99.90;;;;;;5037522;28;20273;-79
2022/04/29 05:28:29;;;;;;;0.70;0.70;;;4.80;99.50;;;;;;5054653;28;20216;-78
2022/04/29 05:30:56;;;;;;;0.60;0.60;;;4.80;99.10;;;;;;5037528;28;20270;-80
2022/04/29 05:33:23;;;;;;;0.63;0.63;;;4.90;99.70;;;;;;5036483;28;20281;-79
2022/04/29 05:35:49;;;;;;;0.70;0.70;;;5.00;99.20;;;;;;5036761;28;20189;-79
2022/04/29 05:38:15;;;;;;;0.70;0.70;;;5.00;98.70;;;;;;5029937;28;20572;-78
2022/04/29 05:43:27;;;;;;;0.70;0.70;;;5.00;98.90;;;;;;5014852;28;20234;-79
2022/04/29 05:45:53;;;;;;;0.60;0.60;;;5.10;99.10;;;;;;5025590;28;20201;-79
2022/04/29 05:48:19;;;;;;;0.60;0.60;;;5.20;99.40;;;;;;5017230;28;20869;-80
2022/04/29 05:50:46;;;;;;;0.70;0.70;;;5.30;98.90;;;;;;5034499;28;20214;-79
2022/04/29 05:53:12;;;;;;;0.70;0.70;;;5.40;98.50;;;;;;5016469;28;20281;-80
2022/04/29 05:55:38;;;;;;;0.90;0.90;;;5.50;98.30;;;;;;5037840;28;20201;-79
2022/04/29 05:58:04;;;;;;;0.60;0.60;;;5.60;98.90;;;;;;5040329;28;20652;-79
2022/04/29 06:00:30;;;;;;;0.70;0.70;;;5.70;98.20;;;;;;5031350;28;20676;-80
2022/04/29 06:02:56;;;;;;;0.60;0.60;;;5.80;98.00;;;;;;5037493;28;20206;-80
2022/04/29 06:05:22;;;;;;;0.60;0.60;;;6.00;98.20;;;;;;5021055;28;20205;-80
2022/04/29 06:07:48;;;;;;;0.70;0.70;;;6.00;97.80;;;;;;5037395;28;20289;-79
2022/04/29 06:10:14;;;;;;;0.68;0.68;;;6.00;97.50;;;;;;5037076;28;20229;-79
2022/04/29 06:12:41;;;;;;;0.90;0.90;;;5.90;97.70;;;;;;5036656;28;20676;-79
2022/04/29 06:15:12;;;;;;;0.70;0.70;;;6.00;98.00;;;;;;5037479;28;20201;-78
2022/04/29 06:17:37;;;;;;;0.63;0.63;;;5.90;98.10;;;;;;5036398;28;20229;-79
2022/04/29 06:20:04;;;;;;;0.60;0.60;;;6.00;97.90;;;;;;5036458;28;20194;-79
2022/04/29 06:22:29;;;;;;;0.70;0.70;;;6.00;98.20;;;;;;5048760;28;20750;-79
2022/04/29 06:24:56;;;;;;;0.75;0.75;;;6.00;97.90;;;;;;5039053;28;20202;-80
2022/04/29 06:27:22;;;;;;;0.60;0.60;;;6.10;98.10;;;;;;5038252;28;20331;-79
2022/04/29 06:29:47;;;;;;;0.70;0.70;;;6.20;98.10;;;;;;5038857;28;20269;-79
2022/04/29 06:32:13;;;;;;;0.60;0.60;;;6.30;98.20;;;;;;5038770;28;20280;-79
2022/04/29 06:34:39;;;;;;;0.70;0.70;;;6.50;97.30;;;;;;5054444;28;20271;-79
2022/04/29 06:37:06;;;;;;;0.70;0.70;;;6.60;97.30;;;;;;5038598;28;20190;-78
2022/04/29 06:39:32;;;;;;;0.60;0.60;;;6.60;97.20;;;;;;5038520;28;20660;-78
2022/04/29 06:41:57;;;;;;;0.70;0.70;;;6.80;97.40;;;;;;5045663;28;20244;-79
2022/04/29 06:44:23;;;;;;;0.70;0.70;;;6.80;97.40;;;;;;5036718;28;20194;-79
2022/04/29 06:46:50;;;;;;;0.70;0.70;;;6.90;97.40;;;;;;5035243;28;20190;-79
2022/04/29 06:49:17;;;;;;;0.60;0.60;;;7.00;97.00;;;;;;5018995;28;20196;-79
2022/04/29 06:51:43;;;;;;;0.73;0.73;;;7.00;96.40;;;;;;5018796;28;20212;-79
2022/04/29 06:54:08;;;;;;;0.70;0.70;;;7.10;96.60;;;;;;5026432;28;20284;-79
2022/04/29 06:56:35;;;;;;;0.70;0.70;;;7.10;96.00;;;;;;5038283;28;20193;-79
2022/04/29 06:59:02;;;;;;;0.70;0.70;;;7.20;95.70;;;;;;5038345;28;20250;-79
2022/04/29 07:01:28;;;;;;;0.60;0.60;;;7.40;95.60;;;;;;5037365;28;20721;-79
2022/04/29 07:03:53;;;;;;;0.70;0.70;;;7.50;95.00;;;;;;5055925;28;20185;-79
2022/04/29 07:06:19;;;;;;;0.70;0.70;;;7.40;94.80;;;;;;5037507;28;20193;-80
2022/04/29 07:08:45;;;;;;;0.63;0.63;;;7.50;95.80;;;;;;5054358;28;20263;-79
2022/04/29 07:11:10;;;;;;;0.60;0.60;;;7.60;94.50;;;;;;5037550;28;20216;-80
2022/04/29 07:13:36;;;;;;;0.70;0.70;;;7.60;94.50;;;;;;5054820;28;20296;-79
2022/04/29 07:16:02;;;;;;;0.70;0.70;;;7.80;94.90;;;;;;5054947;28;20200;-79
2022/04/29 07:18:52;;;;;;;0.68;0.68;;;8.10;93.60;;;;;;5055400;28;20190;-80
2022/04/29 07:21:18;;;;;;;0.55;0.55;;;8.10;93.50;;;;;;5054453;28;20241;-79
2022/04/29 07:23:43;;;;;;;0.80;0.80;;;8.40;93.10;;;;;;5054085;28;20276;-79
2022/04/29 07:26:09;;;;;;;0.60;0.60;;;8.70;92.10;;;;;;5054308;28;20671;-79
2022/04/29 07:28:35;;;;;;;0.70;0.70;;;8.90;92.20;;;;;;5054055;28;20193;-79
2022/04/29 07:31:01;;;;;;;0.60;0.60;;;9.00;92.20;;;;;;5053703;28;20219;-79
2022/04/29 07:33:27;;;;;;;0.70;0.70;;;9.10;91.10;;;;;;5053557;28;20714;-80
2022/04/29 07:44:06;;;;;;;0.77;0.77;;;8.60;89.90;;;;;;5055219;28;20200;-79
2022/04/29 07:46:32;;;;;;;0.70;0.70;;;8.80;91.60;;;;;;5053313;28;20205;-78
2022/04/29 07:48:58;;;;;;;0.60;0.60;;;9.10;91.00;;;;;;5037117;28;20221;-79
2022/04/29 07:51:24;;;;;;;0.50;0.50;;;9.30;88.40;;;;;;5054655;28;20714;-79
2022/04/29 07:53:49;;;;;;;0.70;0.70;;;9.60;88.50;;;;;;5036740;28;20198;-79
2022/04/29 07:56:15;;;;;;;0.60;0.60;;;9.80;86.90;;;;;;5037045;28;20247;-79
2022/04/29 07:58:42;;;;;;;0.60;0.60;;;10.10;87.30;;;;;;5036000;28;20197;-79
2022/04/29 08:01:09;;;;;;;0.50;0.50;;;10.40;87.70;;;;;;5036480;28;20209;-79
2022/04/29 08:03:39;;;;;;;0.50;0.50;;;10.50;84.80;;;;;;5036853;28;20251;-77
2022/04/29 08:06:06;;;;;;;0.60;0.60;;;10.40;82.90;;;;;;5054574;28;20201;-76
2022/04/29 08:08:33;;;;;;;0.60;0.60;;;10.60;83.00;;;;;;5036446;28;20664;-76
2022/04/29 08:10:59;;;;;;;0.50;0.50;;;10.80;86.00;;;;;;5054068;28;20209;-78
2022/04/29 08:13:26;;;;;;;0.73;0.73;;;11.00;83.20;;;;;;5052577;28;20194;-77
2022/04/29 08:15:51;;;;;;;1.20;0.85;;;11.10;80.90;;;;;;5052790;28;20197;-77
2022/04/29 08:18:19;;;;;;;0.50;0.50;;;10.90;82.40;;;;;;5052900;28;20220;-76
2022/04/29 08:20:44;;;;;;;0.50;0.50;;;11.20;83.00;;;;;;5054200;28;20218;-77
2022/04/29 08:23:10;;;;;;;0.60;0.60;;;11.20;78.50;;;;;;5043307;28;20259;-78
2022/04/29 08:25:36;;;;;;;3.40;0.70;;;11.70;81.10;;;;;;5033540;28;20229;-78
2022/04/29 08:28:03;;;;;;;0.50;0.50;;;12.10;79.00;;;;;;5034487;28;20209;-78
2022/04/29 08:30:30;;;;;;;0.50;0.50;;;12.40;76.30;;;;;;5033047;28;20297;-79
2022/04/29 08:32:57;;;;;;;1.05;0.73;;;12.50;71.10;;;;;;5032730;28;20202;-78
2022/04/29 08:35:24;;;;;;;0.50;0.50;;;12.10;72.90;;;;;;5048369;28;20652;-78
2022/04/29 08:37:50;;;;;;;0.50;0.50;;;11.80;72.20;;;;;;5035772;28;20197;-78
2022/04/29 08:40:16;;;;;;;0.50;0.50;;;11.70;74.10;;;;;;5035817;28;20620;-78
2022/04/29 08:42:43;;;;;;;0.50;0.50;;;11.60;73.00;;;;;;5035650;28;20280;-79
2022/04/29 08:45:11;;;;;;;0.50;0.50;;;11.90;74.20;;;;;;5035832;28;20288;-79
2022/04/29 08:47:39;;;;;;;0.57;0.57;;;12.30;73.70;;;;;;5052545;28;20231;-79
2022/04/29 08:50:08;;;;;;;0.70;0.70;;;12.50;70.60;;;;;;5053420;28;20692;-79
2022/04/29 08:52:38;;;;;;;0.50;0.50;;;12.50;69.30;;;;;;5053219;28;20197;-79
2022/04/29 09:00:35;;;;;;;0.50;0.50;;;11.70;68.70;;;;;;5054337;28;20236;-79
2022/04/29 09:03:02;;;;;;;0.50;0.50;;;11.50;65.70;;;;;;5053132;28;20225;-78
2022/04/29 09:05:28;;;;;;;0.47;0.47;;;11.50;64.00;;;;;;5036105;28;20683;-78
2022/04/29 09:08:01;;;;;;;0.57;0.57;;;11.90;68.20;;;;;;5036299;28;20205;-79
2022/04/29 09:10:35;;;;;;;0.50;0.50;;;12.60;70.00;;;;;;5053916;28;20194;-79
2022/04/29 09:13:13;;;;;;;0.50;0.50;;;12.70;67.40;;;;;;5052499;28;20197;-79
2022/04/29 09:16:00;;;;;;;0.43;0.43;;;13.00;69.50;;;;;;5053860;28;20223;-79
2022/04/29 09:18:32;;;;;;;0.45;0.45;;;13.10;69.60;;;;;;5053023;28;20199;-80
2022/04/29 09:20:58;;;;;;;0.50;0.50;;;13.60;69.20;;;;;;5052728;28;20295;-78
2022/04/29 09:23:30;;;;;;;0.50;0.50;;;14.20;67.20;;;;;;5040848;28;20214;-79
2022/04/29 09:25:59;;;;;;;0.50;0.50;;;14.20;63.90;;;;;;5034110;28;20198;-79
2022/04/29 09:28:25;;;;;;;0.50;0.50;;;14.00;62.10;;;;;;5032868;28;20194;-78
2022/04/29 09:30:56;;;;;;;0.40;0.40;;;13.70;62.70;;;;;;5034525;28;20359;-79
2022/04/29 09:33:23;;;;;;;4.22;1.50;;;13.60;67.00;;;;;;5036331;28;20198;-79
2022/04/29 09:35:50;;;;;;;0.40;0.40;;;13.40;62.40;;;;;;5020408;28;20190;-79
2022/04/29 09:41:01;;;;;;;0.40;0.40;;;14.30;61.70;;;;;;5037521;28;20274;-79
2022/04/29 09:43:40;;;;;;;0.40;0.40;;;14.30;64.60;;;;;;5048997;28;20208;-79
2022/04/29 09:46:14;;;;;;;3.63;0.95;;;14.70;63.10;;;;;;5040170;28;20202;-79
2022/04/29 09:48:50;;;;;;;0.40;0.40;;;15.10;59.60;;;;;;5040942;28;20668;-80
2022/04/29 09:51:21;;;;;;;4.57;0.85;;;14.90;59.70;;;;;;5040375;28;20208;-79
2022/04/29 09:53:46;;;;;;;0.40;0.40;;;14.50;60.60;;;;;;5040480;28;20288;-78
2022/04/29 09:56:12;;;;;;;0.40;0.40;;;14.50;61.00;;;;;;5040580;28;20232;-79
2022/04/29 09:58:40;;;;;;;0.40;0.40;;;14.80;63.40;;;;;;5057972;28;20221;-78
2022/04/29 10:01:06;;;;;;;0.30;0.30;;;14.80;59.90;;;;;;5057871;28;20201;-77
2022/04/29 10:03:35;;;;;;;0.40;0.40;;;15.10;64.70;;;;;;5056353;28;20193;-79
2022/04/29 10:06:02;;;;;;;0.30;0.30;;;15.30;59.20;;;;;;5058452;28;20194;-78
2022/04/29 10:08:30;;;;;;;0.40;0.40;;;15.70;59.10;;;;;;5073854;28;20611;-78
2022/04/29 10:14:46;;;;;;;0.30;0.30;;;16.30;58.20;;;;;;5023549;28;20277;-80
2022/04/29 10:22:53;;;;;;;10.10;2.15;;;16.90;56.80;;;;;;5057648;28;20281;-79
2022/04/29 10:25:25;;;;;;;0.30;0.30;;;16.60;56.50;;;;;;5056646;28;20277;-80
2022/04/29 10:27:52;;;;;;;0.43;0.43;;;16.30;57.00;;;;;;5055949;28;20193;-79
2022/04/29 10:30:38;;;;;;;0.30;0.30;;;15.50;57.20;;;;;;5038716;28;20263;-80
2022/04/29 10:33:09;;;;;;;0.40;0.40;;;15.30;58.80;;;;;;5038502;28;20570;-79
2022/04/29 10:35:47;;;;;;;0.40;0.40;;;15.00;59.00;;;;;;5038206;28;20276;-79
2022/04/29 10:38:17;;;;;;;0.50;0.50;;;14.80;59.40;;;;;;5056359;28;20193;-79
2022/04/29 10:40:44;;;;;;;0.50;0.50;;;14.50;58.80;;;;;;5038265;28;20202;-78
2022/04/29 10:43:13;;;;;;;0.40;0.40;;;13.30;59.70;;;;;;5054804;28;20213;-80
2022/04/29 10:46:04;;;;;;;0.40;0.40;;;13.30;62.80;;;;;;5038160;28;20197;-78
2022/04/29 10:48:31;;;;;;;0.40;0.40;;;13.50;63.20;;;;;;5037987;28;20202;-80
2022/04/29 10:50:58;;;;;;;0.40;0.40;;;14.10;60.10;;;;;;5037890;28;20252;-78
2022/04/29 10:53:25;;;;;;;0.50;0.50;;;14.50;61.80;;;;;;5054090;28;20653;-79
2022/04/29 10:55:50;;;;;;;0.40;0.40;;;14.80;59.10;;;;;;5037552;28;20259;-79
2022/04/29 10:58:21;;;;;;;0.40;0.40;;;15.00;60.60;;;;;;5055794;28;20660;-78
2022/04/29 11:01:16;;;;;;;0.40;0.40;;;15.20;59.20;;;;;;5055534;28;20193;-78
2022/04/29 11:03:45;;;;;;;0.40;0.40;;;15.30;56.80;;;;;;5054164;28;20200;-79
2022/04/29 11:06:13;;;;;;;0.50;0.50;;;14.80;59.90;;;;;;5056049;28;20237;-78
2022/04/29 11:08:40;;;;;;;0.40;0.40;;;15.00;60.10;;;;;;5054041;28;20201;-80
2022/04/29 11:11:06;;;;;;;0.60;0.60;;;15.20;60.60;;;;;;5054146;28;20213;-79
2022/04/29 11:13:35;;;;;;;0.30;0.30;;;15.40;59.40;;;;;;5038379;28;20201;-79
2022/04/29 11:16:10;;;;;;;0.40;0.40;;;15.70;58.20;;;;;;5043103;28;20221;-79
2022/04/29 11:18:36;;;;;;;0.30;0.30;;;15.60;57.20;;;;;;5037464;28;20185;-79
2022/04/29 11:26:49;;;;;;;0.35;0.35;;;14.80;66.60;;;;;;5054986;28;20340;-77
2022/04/29 11:29:18;;;;;;;0.40;0.40;;;15.40;63.20;;;;;;5037165;28;20198;-79
2022/04/29 11:31:44;;;;;;;1.85;1.20;;;15.70;58.00;;;;;;5055507;28;20672;-79
2022/04/29 11:34:10;;;;;;;0.47;0.38;;;16.10;64.80;;;;;;5054810;28;20532;-79
2022/04/29 11:36:37;;;;;;;0.40;0.40;;;16.40;58.10;;;;;;5036534;28;20708;-76
2022/04/29 11:39:15;;;;;;;0.30;0.30;;;16.10;56.90;;;;;;5054037;28;20315;-79
2022/04/29 11:41:55;;;;;;;0.35;0.35;;;16.00;57.30;;;;;;5053619;28;20284;-78
2022/04/29 11:44:42;;;;;;;0.30;0.30;;;15.60;56.30;;;;;;5036115;28;20201;-77
2022/04/29 11:47:08;;;;;;;0.30;0.30;;;15.30;59.50;;;;;;5054801;28;20197;-78
2022/04/29 11:49:34;;;;;;;0.30;0.30;;;15.40;59.00;;;;;;5053580;28;20197;-77
2022/04/29 11:52:30;;;;;;;0.30;0.30;;;15.80;62.40;;;;;;5054464;28;20583;-77
2022/04/29 11:55:01;;;;;;;0.30;0.30;;;15.60;57.80;;;;;;5053885;28;20197;-77
2022/04/29 11:57:30;;;;;;;0.30;0.30;;;15.60;61.00;;;;;;5035404;28;20197;-75
2022/04/29 11:59:56;;;;;;;0.40;0.40;;;16.00;60.60;;;;;;5053725;28;20216;-73
2022/04/29 12:02:24;;;;;;;0.30;0.30;;;16.10;58.00;;;;;;5053776;28;20189;-78
2022/04/29 12:04:57;;;;;;;0.30;0.30;;;16.10;59.00;;;;;;5037113;28;20201;-77
2022/04/29 12:07:23;;;;;;;0.20;0.20;;;16.40;56.60;;;;;;5052866;28;20194;-77
2022/04/29 12:09:49;;;;;;;0.40;0.40;;;16.40;57.10;;;;;;5054097;28;20560;-78
2022/04/29 12:12:32;;;;;;;0.30;0.30;;;16.40;55.60;;;;;;5043346;28;20236;-76
2022/04/29 12:14:59;;;;;;;0.30;0.30;;;16.60;66.70;;;;;;5036144;28;20310;-77
2022/04/29 12:17:32;;;;;;;0.40;0.40;;;16.70;56.70;;;;;;5053824;28;20656;-77
2022/04/29 12:19:58;;;;;;;0.40;0.40;;;16.40;56.60;;;;;;5054310;28;20219;-78
2022/04/29 12:22:34;;;;;;;1.58;0.65;;;15.60;56.80;;;;;;5053571;28;20225;-78
2022/04/29 12:25:39;;;;;;;0.30;0.30;;;15.50;57.20;;;;;;5053990;28;20193;-77
2022/04/29 12:28:10;;;;;;;0.30;0.30;;;15.80;58.60;;;;;;5053924;28;20189;-78
2022/04/29 12:36:16;;;;;;;0.30;0.30;;;15.60;61.20;;;;;;5034143;28;20220;-76
2022/04/29 12:38:43;;;;;;;0.45;0.45;;;15.90;60.60;;;;;;5033759;28;20190;-77
2022/04/29 12:41:24;;;;;;;0.30;0.30;;;16.30;60.00;;;;;;5032645;28;20743;-78
2022/04/29 12:44:05;;;;;;;0.30;0.30;;;16.90;61.90;;;;;;5033786;28;20559;-78
2022/04/29 12:46:32;;;;;;;0.30;0.30;;;17.70;54.50;;;;;;5033646;28;20636;-78
2022/04/29 12:48:57;;;;;;;0.20;0.20;;;17.70;54.80;;;;;;5032508;28;20194;-78
2022/04/29 12:51:31;;;;;;;0.30;0.30;;;17.70;58.30;;;;;;5032135;28;20225;-78
2022/04/29 12:53:58;;;;;;;0.30;0.30;;;17.70;54.40;;;;;;5035059;28;20193;-79
2022/04/29 12:56:27;;;;;;;0.30;0.30;;;17.20;55.40;;;;;;5032506;28;20304;-79
2022/04/29 12:58:53;;;;;;;0.30;0.30;;;17.50;58.60;;;;;;5033790;28;20724;-78
2022/04/29 13:01:19;;;;;;;0.30;0.30;;;17.30;58.00;;;;;;5047096;28;20289;-79
2022/04/29 13:03:56;;;;;;;0.30;0.30;;;17.40;55.70;;;;;;5052523;28;20204;-78
2022/04/29 13:06:23;;;;;;;0.30;0.30;;;17.20;54.00;;;;;;5052585;28;20196;-78
2022/04/29 13:08:55;;;;;;;0.30;0.30;;;16.40;54.50;;;;;;5052138;28;20233;-78
2022/04/29 13:11:22;;;;;;;0.30;0.30;;;15.80;56.70;;;;;;5051454;28;20684;-78
2022/04/29 13:13:51;;;;;;;0.30;0.30;;;15.60;57.30;;;;;;5053096;28;20192;-76
2022/04/29 13:16:20;;;;;;;0.30;0.30;;;15.70;57.00;;;;;;5034815;28;20193;-78
2022/04/29 13:18:47;;;;;;;0.20;0.20;;;16.00;59.40;;;;;;5034876;28;20197;-79
2022/04/29 13:21:14;;;;;;;0.30;0.30;;;16.70;60.80;;;;;;5053230;28;20232;-79
2022/04/29 13:23:44;;;;;;;0.30;0.30;;;17.20;56.40;;;;;;5035405;28;20579;-78
2022/04/29 13:26:13;;;;;;;0.30;0.30;;;17.50;53.50;;;;;;5053219;28;20679;-79
2022/04/29 13:28:39;;;;;;;0.30;0.30;;;16.70;56.30;;;;;;5034899;28;20201;-79
2022/04/29 13:31:06;;;;;;;0.30;0.30;;;16.60;54.80;;;;;;5053169;28;20680;-80
2022/04/29 13:33:32;;;;;;;0.35;0.35;;;16.30;57.60;;;;;;5052987;28;20699;-80
2022/04/29 13:35:58;;;;;;;0.30;0.30;;;16.20;56.30;;;;;;5052120;28;20674;-81
2022/04/29 13:38:24;;;;;;;0.30;0.30;;;16.40;56.60;;;;;;5052166;28;20196;-80
2022/04/29 13:40:51;;;;;;;0.30;0.30;;;16.30;57.10;;;;;;5052362;28;20197;-80
2022/04/29 13:43:18;;;;;;;0.65;0.65;;;16.40;57.30;;;;;;5035542;28;20193;-81